Time;durP1;ratioP1;P1;durP2;ratioP2;P2;SDS_P1;SDS_P2;PMS_P1;PMS_P2;Temp;Humidity;BMP_temperature;BMP_pressure;BME280_temperature;BME280_humidity;BME280_pressure;Samples;Min_cycle;Max_cycle;Signal;HPM_P1;HPM_P2
2023/06/21 00:00:23;;;;;;;9.13;8.20;;;;;;;-148.88;100.00;-17125.47;5033548;28;20483;-86
2023/06/21 00:02:51;;;;;;;10.48;9.32;;;;;;;-148.88;100.00;-17125.47;5033485;28;20018;-85
2023/06/21 00:05:16;;;;;;;8.85;7.95;;;;;;;-148.88;100.00;-17125.47;5015725;28;20029;-85
2023/06/21 00:07:42;;;;;;;10.00;8.82;;;;;;;-148.88;100.00;-17125.47;5015545;28;20025;-86
2023/06/21 00:10:08;;;;;;;10.35;9.23;;;;;;;-148.88;100.00;-17125.47;5033574;28;20022;-86
2023/06/21 00:12:34;;;;;;;9.50;8.35;;;;;;;-148.88;100.00;-17125.47;5033253;28;20021;-86
2023/06/21 00:15:00;;;;;;;11.52;8.90;;;;;;;-148.88;100.00;-17125.47;5015950;28;20159;-85
2023/06/21 00:17:25;;;;;;;13.07;9.15;;;;;;;-148.88;100.00;-17125.47;5033496;28;20115;-85
2023/06/21 00:19:54;;;;;;;11.20;9.70;;;;;;;-148.88;100.00;-17125.47;5033227;28;20128;-86
2023/06/21 00:22:21;;;;;;;10.63;8.90;;;;;;;-148.88;100.00;-17125.47;5033234;28;20021;-86
2023/06/21 00:24:51;;;;;;;11.90;9.73;;;;;;;-148.88;100.00;-17125.47;5033486;28;20052;-86
2023/06/21 00:27:19;;;;;;;10.30;9.20;;;;;;;-148.88;100.00;-17125.47;5016178;28;20032;-85
2023/06/21 00:29:45;;;;;;;12.27;10.27;;;;;;;-148.88;100.00;-17125.47;5033098;28;20029;-86
2023/06/21 00:32:10;;;;;;;10.23;9.23;;;;;;;-148.88;100.00;-17125.47;5015286;28;20075;-87
2023/06/21 00:34:36;;;;;;;11.23;9.73;;;;;;;-148.88;100.00;-17125.47;5033082;28;20025;-86
2023/06/21 00:37:04;;;;;;;13.05;10.48;;;;;;;-148.88;100.00;-17125.47;5033089;28;20388;-86
2023/06/21 00:39:30;;;;;;;12.30;11.10;;;;;;;-148.88;100.00;-17125.47;5015678;28;20022;-86
2023/06/21 00:41:56;;;;;;;14.98;11.57;;;;;;;-148.88;100.00;-17125.47;5033176;28;20116;-87
2023/06/21 00:44:21;;;;;;;14.45;11.30;;;;;;;-148.88;100.00;-17125.47;5015359;28;20061;-86
2023/06/21 00:46:49;;;;;;;13.32;11.95;;;;;;;-148.88;100.00;-17125.47;5033188;28;20025;-87
2023/06/21 00:49:15;;;;;;;14.95;11.75;;;;;;;-148.88;100.00;-17125.47;5015225;28;20484;-87
2023/06/21 00:51:41;;;;;;;14.23;11.77;;;;;;;-148.88;100.00;-17125.47;5033155;28;20052;-85
2023/06/21 00:54:07;;;;;;;14.68;12.70;;;;;;;-148.88;100.00;-17125.47;5032805;28;20079;-86
2023/06/21 00:56:35;;;;;;;14.48;12.35;;;;;;;-148.88;100.00;-17125.47;5015049;28;20033;-87
2023/06/21 00:59:04;;;;;;;18.08;13.23;;;;;;;-148.88;100.00;-17125.47;5015181;28;20018;-85
2023/06/21 01:01:30;;;;;;;13.88;12.48;;;;;;;-148.88;100.00;-17125.47;5032791;28;20381;-87
2023/06/21 01:03:57;;;;;;;18.35;13.05;;;;;;;-148.88;100.00;-17125.47;5015525;28;20075;-85
2023/06/21 01:06:25;;;;;;;19.70;14.45;;;;;;;-148.88;100.00;-17125.47;5015192;28;20082;-87
2023/06/21 01:09:36;;;;;;;18.13;14.02;;;;;;;-148.88;100.00;-17125.47;5015728;28;20028;-86
2023/06/21 01:12:25;;;;;;;15.68;13.88;;;;;;;-148.88;100.00;-17125.47;5032770;28;20025;-87
2023/06/21 01:15:02;;;;;;;14.32;12.63;;;;;;;-148.88;100.00;-17125.47;5032802;28;20018;-87
2023/06/21 01:17:31;;;;;;;16.42;13.25;;;;;;;-148.88;100.00;-17125.47;5032977;28;20025;-87
2023/06/21 01:19:56;;;;;;;19.33;14.57;;;;;;;-148.88;100.00;-17125.47;5035197;28;20476;-87
2023/06/21 01:22:22;;;;;;;17.77;13.45;;;;;;;-148.88;100.00;-17125.47;5036968;28;20079;-87
2023/06/21 01:25:02;;;;;;;15.63;13.85;;;;;;;-148.88;100.00;-17125.47;5036636;28;20026;-87
2023/06/21 01:27:39;;;;;;;16.70;14.45;;;;;;;-148.88;100.00;-17125.47;5018683;28;20039;-88
2023/06/21 01:30:08;;;;;;;16.98;14.55;;;;;;;-148.88;100.00;-17125.47;5036678;28;20029;-87
2023/06/21 01:32:34;;;;;;;17.30;15.20;;;;;;;-148.88;100.00;-17125.47;5018817;28;20056;-88
2023/06/21 01:35:02;;;;;;;17.48;15.32;;;;;;;-148.88;100.00;-17125.47;5018855;28;20029;-87
2023/06/21 01:37:27;;;;;;;19.17;15.43;;;;;;;-148.88;100.00;-17125.47;5036803;28;20032;-86
2023/06/21 01:39:52;;;;;;;18.83;15.82;;;;;;;-148.88;100.00;-17125.47;5018513;28;20026;-88
2023/06/21 01:42:19;;;;;;;18.60;16.63;;;;;;;-148.88;100.00;-17125.47;5018644;28;20369;-88
2023/06/21 01:44:44;;;;;;;17.92;16.02;;;;;;;-148.88;100.00;-17125.47;5018772;28;20017;-88
2023/06/21 01:47:11;;;;;;;19.00;16.98;;;;;;;-148.88;100.00;-17125.47;5036202;28;20022;-89
2023/06/21 01:49:37;;;;;;;18.95;16.38;;;;;;;-148.88;100.00;-17125.47;5036306;28;20056;-88
2023/06/21 01:52:06;;;;;;;18.73;15.45;;;;;;;-148.88;100.00;-17125.47;5036061;28;20032;-88
2023/06/21 01:54:34;;;;;;;20.85;16.85;;;;;;;-148.88;100.00;-17125.47;5018483;28;20061;-87
2023/06/21 01:57:00;;;;;;;18.13;16.30;;;;;;;-148.88;100.00;-17125.47;5018350;28;20026;-88
2023/06/21 01:59:28;;;;;;;18.48;16.58;;;;;;;-148.88;100.00;-17125.47;5035983;28;20029;-87
2023/06/21 02:01:54;;;;;;;18.58;15.43;;;;;;;-148.88;100.00;-17125.47;5018354;28;20030;-89
2023/06/21 02:04:21;;;;;;;18.33;16.42;;;;;;;-148.88;100.00;-17125.47;5035974;28;20025;-88
2023/06/21 02:06:48;;;;;;;20.40;17.27;;;;;;;-148.88;100.00;-17125.47;5018486;28;20065;-89
2023/06/21 02:09:14;;;;;;;18.83;15.77;;;;;;;-148.88;100.00;-17125.47;5018130;28;20052;-88
2023/06/21 02:11:40;;;;;;;17.45;15.65;;;;;;;-148.88;100.00;-17125.47;5035926;28;20057;-88
2023/06/21 02:14:06;;;;;;;21.23;17.85;;;;;;;-148.88;100.00;-17125.47;5035801;28;20499;-89
2023/06/21 02:16:33;;;;;;;19.48;16.77;;;;;;;-148.88;100.00;-17125.47;5035831;28;20049;-90
2023/06/21 02:18:58;;;;;;;26.02;17.60;;;;;;;-148.88;100.00;-17125.47;5035619;28;20032;-89
2023/06/21 02:21:23;;;;;;;17.75;15.80;;;;;;;-148.88;100.00;-17125.47;5035676;28;20033;-90
2023/06/21 02:23:49;;;;;;;18.55;16.48;;;;;;;-148.88;100.00;-17125.47;5035657;28;20018;-88
2023/06/21 02:26:16;;;;;;;18.70;16.30;;;;;;;-148.88;100.00;-17125.47;5035613;28;20432;-90
2023/06/21 02:28:41;;;;;;;18.63;16.17;;;;;;;-148.88;100.00;-17125.47;5017890;28;20044;-89
2023/06/21 02:31:07;;;;;;;19.08;15.98;;;;;;;-148.88;100.00;-17125.47;5035836;28;20029;-89
2023/06/21 02:33:32;;;;;;;18.60;16.60;;;;;;;-148.88;100.00;-17125.47;5035400;28;20030;-89
2023/06/21 02:35:58;;;;;;;18.15;16.23;;;;;;;-148.88;100.00;-17125.47;5035437;28;20071;-89
2023/06/21 02:38:25;;;;;;;21.67;17.30;;;;;;;-148.88;100.00;-17125.47;5035535;28;20040;-89
2023/06/21 02:40:51;;;;;;;21.63;17.25;;;;;;;-148.88;100.00;-17125.47;5035231;28;20053;-88
2023/06/21 02:43:16;;;;;;;19.20;16.65;;;;;;;-148.88;100.00;-17125.47;5035152;28;20068;-90
2023/06/21 02:45:41;;;;;;;19.80;16.70;;;;;;;-148.88;100.00;-17125.47;5035239;28;20021;-89
2023/06/21 02:48:07;;;;;;;18.40;16.27;;;;;;;-148.88;100.00;-17125.47;5035170;28;20083;-90
2023/06/21 02:50:32;;;;;;;20.65;16.10;;;;;;;-148.88;100.00;-17125.47;5017261;28;20026;-90
2023/06/21 02:52:58;;;;;;;19.10;16.92;;;;;;;-148.88;100.00;-17125.47;5035085;28;20345;-89
2023/06/21 02:55:23;;;;;;;17.92;16.00;;;;;;;-148.88;100.00;-17125.47;5035186;28;20104;-89
2023/06/21 02:57:48;;;;;;;18.83;16.30;;;;;;;-148.88;100.00;-17125.47;5034876;28;20048;-89
2023/06/21 03:00:19;;;;;;;19.67;17.17;;;;;;;-148.88;100.00;-17125.47;5034881;28;20022;-90
2023/06/21 03:02:45;;;;;;;18.92;15.75;;;;;;;-148.88;100.00;-17125.47;5035028;28;20017;-88
2023/06/21 03:05:13;;;;;;;18.02;15.90;;;;;;;-148.88;100.00;-17125.47;5017143;28;20021;-90
2023/06/21 03:07:43;;;;;;;21.88;16.50;;;;;;;-148.88;100.00;-17125.47;5034725;28;20029;-89
2023/06/21 03:10:13;;;;;;;19.23;17.20;;;;;;;-148.88;100.00;-17125.47;5034649;28;20113;-86
2023/06/21 03:12:43;;;;;;;22.95;17.13;;;;;;;-148.88;100.00;-17125.47;5016750;28;20071;-88
2023/06/21 03:15:09;;;;;;;19.63;17.55;;;;;;;-148.88;100.00;-17125.47;5034509;28;20025;-86
2023/06/21 03:17:35;;;;;;;18.65;16.30;;;;;;;-148.88;100.00;-17125.47;5034935;28;20021;-88
2023/06/21 03:20:03;;;;;;;21.55;17.27;;;;;;;-148.88;100.00;-17125.47;5034524;28;20037;-88
2023/06/21 03:22:28;;;;;;;26.35;20.15;;;;;;;-148.88;100.00;-17125.47;5034591;28;20017;-89
2023/06/21 03:24:53;;;;;;;23.27;20.30;;;;;;;-148.88;100.00;-17125.47;5034448;28;20025;-90
2023/06/21 03:27:19;;;;;;;23.77;20.83;;;;;;;-148.88;100.00;-17125.47;5035172;28;20160;-90
2023/06/21 03:29:44;;;;;;;27.52;21.58;;;;;;;-148.88;100.00;-17125.47;5034415;28;20033;-85
2023/06/21 03:32:09;;;;;;;24.85;21.63;;;;;;;-148.88;100.00;-17125.47;5034364;28;20028;-85
2023/06/21 03:34:35;;;;;;;27.33;21.67;;;;;;;-148.88;100.00;-17125.47;5034289;28;20388;-86
2023/06/21 03:37:00;;;;;;;29.33;22.58;;;;;;;-148.88;100.00;-17125.47;5033972;28;20104;-85
2023/06/21 03:39:26;;;;;;;25.58;21.27;;;;;;;-148.88;100.00;-17125.47;5034623;28;20462;-89
2023/06/21 03:41:51;;;;;;;24.77;21.23;;;;;;;-148.88;100.00;-17125.47;5034625;28;20025;-87
2023/06/21 03:44:17;;;;;;;27.38;22.58;;;;;;;-148.88;100.00;-17125.47;5033998;28;20029;-85
2023/06/21 03:46:42;;;;;;;29.00;22.58;;;;;;;-148.88;100.00;-17125.47;5033878;28;20112;-86
2023/06/21 03:49:08;;;;;;;27.70;22.27;;;;;;;-148.88;100.00;-17125.47;5033984;28;20075;-86
2023/06/21 03:51:33;;;;;;;25.52;22.65;;;;;;;-148.88;100.00;-17125.47;5033771;28;20029;-85
2023/06/21 03:53:59;;;;;;;27.05;22.05;;;;;;;-148.88;100.00;-17125.47;5033763;28;20025;-90
2023/06/21 03:56:24;;;;;;;29.35;23.73;;;;;;;-148.88;100.00;-17125.47;5033871;28;20025;-89
2023/06/21 03:58:49;;;;;;;30.58;23.42;;;;;;;-148.88;100.00;-17125.47;5033937;28;20053;-87
2023/06/21 04:01:16;;;;;;;25.95;22.35;;;;;;;-148.88;100.00;-17125.47;5033724;28;20108;-87
2023/06/21 04:03:41;;;;;;;26.52;21.50;;;;;;;-148.88;100.00;-17125.47;5033794;28;20033;-86
2023/06/21 04:06:07;;;;;;;24.55;20.25;;;;;;;-148.88;100.00;-17125.47;5033827;28;20021;-87
2023/06/21 04:08:32;;;;;;;24.33;19.63;;;;;;;-148.88;100.00;-17125.47;5015711;28;20053;-88
2023/06/21 04:10:57;;;;;;;22.90;19.92;;;;;;;-148.88;100.00;-17125.47;5033518;28;20025;-87
2023/06/21 04:13:23;;;;;;;23.05;19.67;;;;;;;-148.88;100.00;-17125.47;5033532;28;20427;-87
2023/06/21 04:15:48;;;;;;;25.65;20.88;;;;;;;-148.88;100.00;-17125.47;5033346;28;20022;-86
2023/06/21 04:18:13;;;;;;;25.58;20.23;;;;;;;-148.88;100.00;-17125.47;5033273;28;20108;-88
2023/06/21 04:20:39;;;;;;;24.33;20.50;;;;;;;-148.88;100.00;-17125.47;5033277;28;20404;-87
2023/06/21 04:23:05;;;;;;;25.48;21.17;;;;;;;-148.88;100.00;-17125.47;5033417;28;20049;-87
2023/06/21 04:25:30;;;;;;;28.17;21.77;;;;;;;-148.88;100.00;-17125.47;5015712;28;20018;-86
2023/06/21 04:27:55;;;;;;;30.42;22.92;;;;;;;-148.88;100.00;-17125.47;5033312;28;20176;-83
2023/06/21 04:30:21;;;;;;;30.13;22.17;;;;;;;-148.88;100.00;-17125.47;5033817;28;20037;-86
2023/06/21 04:32:46;;;;;;;32.58;24.02;;;;;;;-148.88;100.00;-17125.47;5016383;28;20021;-86
2023/06/21 04:35:16;;;;;;;34.67;25.52;;;;;;;-148.88;100.00;-17125.47;5034165;28;20025;-84
2023/06/21 04:37:44;;;;;;;33.13;24.77;;;;;;;-148.88;100.00;-17125.47;5017606;28;20079;-88
2023/06/21 04:40:17;;;;;;;34.70;26.23;;;;;;;-148.88;100.00;-17125.47;5035264;28;20021;-88
2023/06/21 04:42:45;;;;;;;39.00;28.08;;;;;;;-148.88;100.00;-17125.47;5037097;28;20021;-87
2023/06/21 04:45:11;;;;;;;39.28;28.85;;;;;;;-148.88;100.00;-17125.47;5016415;28;20385;-85
2023/06/21 04:47:37;;;;;;;38.55;29.05;;;;;;;-148.88;100.00;-17125.47;5033538;28;20035;-84
2023/06/21 04:50:03;;;;;;;39.20;28.55;;;;;;;-148.88;100.00;-17125.47;5033923;28;20034;-86
2023/06/21 04:52:39;;;;;;;39.10;27.80;;;;;;;-148.88;100.00;-17125.47;5017382;28;20021;-85
2023/06/21 04:55:17;;;;;;;36.53;27.65;;;;;;;-148.88;100.00;-17125.47;5019902;28;20026;-87
2023/06/21 04:57:53;;;;;;;38.35;27.42;;;;;;;-148.88;100.00;-17125.47;5038022;28;20502;-86
2023/06/21 05:00:21;;;;;;;36.78;26.33;;;;;;;-148.88;100.00;-17125.47;5019373;28;20452;-86
2023/06/21 05:02:47;;;;;;;35.30;24.40;;;;;;;-148.88;100.00;-17125.47;5019803;28;20075;-84
2023/06/21 05:05:12;;;;;;;29.83;23.83;;;;;;;-148.88;100.00;-17125.47;5020364;28;20029;-86
2023/06/21 05:07:38;;;;;;;36.03;24.98;;;;;;;-148.88;100.00;-17125.47;5019374;28;20525;-85
2023/06/21 05:10:10;;;;;;;34.97;25.13;;;;;;;-148.88;100.00;-17125.47;5017043;28;20047;-85
2023/06/21 05:12:51;;;;;;;33.75;24.35;;;;;;;-148.88;100.00;-17125.47;5021725;28;20030;-85
2023/06/21 05:15:17;;;;;;;31.17;23.67;;;;;;;-148.88;100.00;-17125.47;5020078;28;20064;-86
2023/06/21 05:17:48;;;;;;;33.50;23.63;;;;;;;-148.88;100.00;-17125.47;5019590;28;20048;-86
2023/06/21 05:20:18;;;;;;;29.73;23.17;;;;;;;-148.88;100.00;-17125.47;5018818;28;20030;-86
2023/06/21 05:22:43;;;;;;;31.48;23.20;;;;;;;-148.88;100.00;-17125.47;5037326;28;20029;-84
2023/06/21 05:25:18;;;;;;;29.13;22.65;;;;;;;-148.88;100.00;-17125.47;5019449;28;20025;-86
2023/06/21 05:27:44;;;;;;;28.20;21.77;;;;;;;-148.88;100.00;-17125.47;5021278;28;20028;-84
2023/06/21 05:30:21;;;;;;;30.38;22.33;;;;;;;-148.88;100.00;-17125.47;5037476;28;20029;-85
2023/06/21 05:32:47;;;;;;;34.28;24.67;;;;;;;-148.88;100.00;-17125.47;5019391;28;20026;-83
2023/06/21 05:35:12;;;;;;;30.35;23.08;;;;;;;-148.88;100.00;-17125.47;5019278;28;20034;-84
2023/06/21 05:37:37;;;;;;;34.30;25.17;;;;;;;-148.88;100.00;-17125.47;5037430;28;20521;-85
2023/06/21 05:40:08;;;;;;;34.45;25.42;;;;;;;-148.88;100.00;-17125.47;5036552;28;20100;-85
2023/06/21 05:42:44;;;;;;;31.98;25.48;;;;;;;-148.88;100.00;-17125.47;5019240;28;20391;-84
2023/06/21 05:45:09;;;;;;;37.42;27.75;;;;;;;-148.88;100.00;-17125.47;5018264;28;20391;-83
2023/06/21 05:47:38;;;;;;;38.75;27.52;;;;;;;-148.88;100.00;-17125.47;5019460;28;20475;-84
2023/06/21 05:50:03;;;;;;;43.17;30.40;;;;;;;-148.88;100.00;-17125.47;5036850;28;20108;-83
2023/06/21 05:52:29;;;;;;;40.70;30.73;;;;;;;-148.88;100.00;-17125.47;5019133;28;20108;-84
2023/06/21 05:54:55;;;;;;;42.20;31.08;;;;;;;-148.88;100.00;-17125.47;5020751;28;20502;-84
2023/06/21 05:57:30;;;;;;;40.53;32.65;;;;;;;-148.88;100.00;-17125.47;5038557;28;20081;-84
2023/06/21 05:59:56;;;;;;;43.20;34.97;;;;;;;-148.88;100.00;-17125.47;5037144;28;20041;-85
2023/06/21 06:02:21;;;;;;;44.15;36.60;;;;;;;-148.88;100.00;-17125.47;5018988;28;20060;-83
2023/06/21 06:04:48;;;;;;;44.25;37.50;;;;;;;-148.88;100.00;-17125.47;5019880;28;20100;-84
2023/06/21 06:07:13;;;;;;;46.72;38.60;;;;;;;-148.88;100.00;-17125.47;5019059;28;20399;-84
2023/06/21 06:09:39;;;;;;;42.38;37.78;;;;;;;-148.88;100.00;-17125.47;5019577;28;20026;-83
2023/06/21 06:12:11;;;;;;;44.85;38.38;;;;;;;-148.88;100.00;-17125.47;5036259;28;20057;-84
2023/06/21 06:14:36;;;;;;;45.10;39.13;;;;;;;-148.88;100.00;-17125.47;5018011;28;20549;-83
2023/06/21 06:17:04;;;;;;;48.58;39.75;;;;;;;-148.88;100.00;-17125.47;5018285;28;20017;-84
2023/06/21 06:19:48;;;;;;;45.35;39.55;;;;;;;-148.88;100.00;-17125.47;5031789;28;20051;-84
2023/06/21 06:22:13;;;;;;;47.67;39.85;;;;;;;-148.88;100.00;-17125.47;5059998;28;20009;-83
2023/06/21 06:24:39;;;;;;;46.78;39.70;;;;;;;-148.88;100.00;-17125.47;5059699;28;20068;-82
2023/06/21 06:27:05;;;;;;;43.47;37.65;;;;;;;-148.88;100.00;-17125.47;5030552;28;20112;-85
2023/06/21 06:29:30;;;;;;;40.97;36.55;;;;;;;-148.88;100.00;-17125.47;5035830;28;20045;-83
2023/06/21 06:31:56;;;;;;;46.20;38.47;;;;;;;-148.88;100.00;-17125.47;5035687;28;20021;-84
2023/06/21 06:34:22;;;;;;;42.22;36.65;;;;;;;-148.88;100.00;-17125.47;5036174;28;20033;-85
2023/06/21 06:36:47;;;;;;;41.38;35.35;;;;;;;-148.88;100.00;-17125.47;5035794;28;20078;-86
2023/06/21 06:39:13;;;;;;;40.05;35.67;;;;;;;-148.88;100.00;-17125.47;5036607;28;20071;-85
2023/06/21 06:41:38;;;;;;;41.00;36.25;;;;;;;-148.88;100.00;-17125.47;5037177;28;20033;-86
2023/06/21 06:44:04;;;;;;;42.83;37.13;;;;;;;-148.88;100.00;-17125.47;5036987;28;20368;-87
2023/06/21 06:46:30;;;;;;;42.70;35.97;;;;;;;-148.88;100.00;-17125.47;5037792;28;20053;-86
2023/06/21 06:48:55;;;;;;;38.90;34.10;;;;;;;-148.88;100.00;-17125.47;5037162;28;20033;-86
2023/06/21 06:51:21;;;;;;;39.47;34.67;;;;;;;-148.88;100.00;-17125.47;5035609;28;20028;-85
2023/06/21 06:53:48;;;;;;;36.58;32.67;;;;;;;-148.88;100.00;-17125.47;5035404;28;20032;-86
2023/06/21 06:56:13;;;;;;;35.70;31.08;;;;;;;-148.88;100.00;-17125.47;5035874;28;20422;-83
2023/06/21 06:58:39;;;;;;;33.95;30.27;;;;;;;-148.88;100.00;-17125.47;5035556;28;20024;-85
2023/06/21 07:01:05;;;;;;;36.38;32.55;;;;;;;-148.88;100.00;-17125.47;5036469;28;20025;-85
2023/06/21 07:03:32;;;;;;;35.67;31.88;;;;;;;-148.88;100.00;-17125.47;5036245;28;20014;-84
2023/06/21 07:05:57;;;;;;;33.03;29.52;;;;;;;-148.88;100.00;-17125.47;5017243;28;20033;-84
2023/06/21 07:08:23;;;;;;;32.15;28.75;;;;;;;-148.88;100.00;-17125.47;5034858;28;20032;-84
2023/06/21 07:10:48;;;;;;;31.73;28.42;;;;;;;-148.88;100.00;-17125.47;5034622;28;20045;-84
2023/06/21 07:13:14;;;;;;;30.08;27.05;;;;;;;-148.88;100.00;-17125.47;5016870;28;20064;-83
2023/06/21 07:15:39;;;;;;;32.25;28.83;;;;;;;-148.88;100.00;-17125.47;5034546;28;20076;-84
2023/06/21 07:18:04;;;;;;;30.88;27.77;;;;;;;-148.88;100.00;-17125.47;5033750;28;20025;-84
2023/06/21 07:20:30;;;;;;;30.70;27.48;;;;;;;-148.88;100.00;-17125.47;5034361;28;20025;-84
2023/06/21 07:22:56;;;;;;;31.77;28.40;;;;;;;-148.88;100.00;-17125.47;5016816;28;20024;-83
2023/06/21 07:25:22;;;;;;;31.00;27.63;;;;;;;-148.88;100.00;-17125.47;5034703;28;20381;-83
2023/06/21 07:27:47;;;;;;;30.63;27.42;;;;;;;-148.88;100.00;-17125.47;5017053;28;20112;-85
2023/06/21 07:30:13;;;;;;;32.15;28.55;;;;;;;-148.88;100.00;-17125.47;5034545;28;20052;-84
2023/06/21 07:32:38;;;;;;;30.50;27.50;;;;;;;-148.88;100.00;-17125.47;5034304;28;20071;-83
2023/06/21 07:35:04;;;;;;;31.38;27.60;;;;;;;-148.88;100.00;-17125.47;5034292;28;20029;-84
2023/06/21 07:37:30;;;;;;;31.83;28.52;;;;;;;-148.88;100.00;-17125.47;5035215;28;20033;-84
2023/06/21 07:39:56;;;;;;;31.65;28.25;;;;;;;-148.88;100.00;-17125.47;5034684;28;20029;-85
2023/06/21 07:42:24;;;;;;;31.85;28.50;;;;;;;-148.88;100.00;-17125.47;5034238;28;20025;-85
2023/06/21 07:44:50;;;;;;;33.13;29.73;;;;;;;-148.88;100.00;-17125.47;5034197;28;20483;-85
2023/06/21 07:47:16;;;;;;;29.40;26.25;;;;;;;-148.88;100.00;-17125.47;5034073;28;20040;-85
2023/06/21 07:49:42;;;;;;;31.65;28.30;;;;;;;-148.88;100.00;-17125.47;5033832;28;20022;-86
2023/06/21 07:52:07;;;;;;;31.27;28.17;;;;;;;-148.88;100.00;-17125.47;5034205;28;20027;-85
2023/06/21 07:54:33;;;;;;;32.13;28.95;;;;;;;-148.88;100.00;-17125.47;5016704;28;20017;-85
2023/06/21 07:56:58;;;;;;;29.98;26.80;;;;;;;-148.88;100.00;-17125.47;5033938;28;20104;-86
2023/06/21 07:59:23;;;;;;;29.00;26.02;;;;;;;-148.88;100.00;-17125.47;5034025;28;20397;-85
2023/06/21 08:01:48;;;;;;;28.90;26.00;;;;;;;-148.88;100.00;-17125.47;5033892;28;20026;-85
2023/06/21 08:04:15;;;;;;;27.85;24.88;;;;;;;-148.88;100.00;-17125.47;5034001;28;20045;-84
2023/06/21 08:06:40;;;;;;;25.90;23.38;;;;;;;-148.88;100.00;-17125.47;5034150;28;20031;-85
2023/06/21 08:09:06;;;;;;;25.38;22.77;;;;;;;-148.88;100.00;-17125.47;5033606;28;20443;-85
2023/06/21 08:11:31;;;;;;;24.23;21.83;;;;;;;-148.88;100.00;-17125.47;5033549;28;20389;-85
2023/06/21 08:13:57;;;;;;;23.30;21.00;;;;;;;-148.88;100.00;-17125.47;5033617;28;20144;-85
2023/06/21 08:16:22;;;;;;;19.73;17.70;;;;;;;-148.88;100.00;-17125.47;5033562;28;20124;-85
2023/06/21 08:18:48;;;;;;;19.10;17.20;;;;;;;-148.88;98.86;-17125.47;5033596;28;20025;-85
2023/06/21 08:21:13;;;;;;;17.27;15.52;;;;;;;-148.88;95.22;-17125.47;5033400;28;20079;-85
2023/06/21 08:23:38;;;;;;;17.38;15.27;;;;;;;-148.88;94.93;-17125.47;5033553;28;20037;-83
2023/06/21 08:26:04;;;;;;;16.33;14.52;;;;;;;-148.88;95.40;-17125.47;5033740;28;20429;-84
2023/06/21 08:28:30;;;;;;;17.42;15.63;;;;;;;-148.88;95.59;-17125.47;5033351;28;20025;-86
2023/06/21 08:30:56;;;;;;;16.27;14.68;;;;;;;-148.88;96.70;-17125.47;5033437;28;20079;-83
2023/06/21 08:33:21;;;;;;;18.30;15.50;;;;;;;-148.88;97.16;-17125.47;5033269;28;20021;-84
2023/06/21 08:35:46;;;;;;;17.20;15.48;;;;;;;-148.88;94.60;-17125.47;5033300;28;20037;-85
2023/06/21 08:38:12;;;;;;;15.52;13.93;;;;;;;-148.88;93.22;-17125.47;5033073;28;20034;-85
2023/06/21 08:40:38;;;;;;;15.95;14.27;;;;;;;-148.88;93.90;-17125.47;5033550;28;20026;-85
2023/06/21 08:43:03;;;;;;;15.65;13.80;;;;;;;-148.88;93.21;-17125.47;5033169;28;20018;-87
2023/06/21 08:45:28;;;;;;;15.60;14.10;;;;;;;-148.88;93.50;-17125.47;5015677;28;20036;-85
2023/06/21 08:47:58;;;;;;;16.02;14.43;;;;;;;-148.88;94.27;-17125.47;5033316;28;20022;-86
2023/06/21 08:50:24;;;;;;;16.13;14.35;;;;;;;-148.88;93.47;-17125.47;5033477;28;20022;-85
2023/06/21 08:52:54;;;;;;;16.77;15.05;;;;;;;-148.88;92.51;-17125.47;5015416;28;20025;-86
2023/06/21 08:55:23;;;;;;;15.52;13.75;;;;;;;-148.88;91.89;-17125.47;5032989;28;20036;-88
2023/06/21 08:57:54;;;;;;;15.95;14.02;;;;;;;-148.88;91.19;-17125.47;5033048;28;20027;-86
2023/06/21 09:00:22;;;;;;;15.40;13.65;;;;;;;-148.88;90.70;-17125.47;5032986;28;20033;-89
2023/06/21 09:03:26;;;;;;;14.13;12.63;;;;;;;-148.88;88.68;-17125.47;5033180;28;20474;-88
2023/06/21 09:06:14;;;;;;;12.77;11.48;;;;;;;-148.88;89.46;-17125.47;5032937;28;20025;-87
2023/06/21 09:08:41;;;;;;;10.75;9.65;;;;;;;-148.88;88.53;-17125.47;5033161;28;20499;-84
2023/06/21 09:11:10;;;;;;;10.93;9.88;;;;;;;-148.88;86.97;-17125.47;5032865;28;20022;-86
2023/06/21 09:13:37;;;;;;;10.80;9.18;;;;;;;-148.88;87.09;-17125.47;5033045;28;20036;-87
2023/06/21 09:16:03;;;;;;;9.60;8.60;;;;;;;-148.88;85.60;-17125.47;5032778;28;20052;-86
2023/06/21 09:18:35;;;;;;;9.55;8.38;;;;;;;-148.88;87.33;-17125.47;5032973;28;20029;-86
2023/06/21 09:21:02;;;;;;;9.75;8.48;;;;;;;-148.88;86.15;-17125.47;5015174;28;20029;-85
2023/06/21 09:23:27;;;;;;;9.63;8.63;;;;;;;-148.88;84.09;-17125.47;5032922;28;20105;-85
2023/06/21 09:25:53;;;;;;;9.98;8.30;;;;;;;-148.88;81.93;-17125.47;5032905;28;20080;-85
2023/06/21 09:28:18;;;;;;;10.02;8.32;;;;;;;-148.88;83.26;-17125.47;5015054;28;20480;-87
2023/06/21 09:30:44;;;;;;;9.90;8.45;;;;;;;-148.88;84.04;-17125.47;5032935;28;20029;-87
2023/06/21 09:33:10;;;;;;;11.13;8.20;;;;;;;-148.88;84.19;-17125.47;5033008;28;20026;-86
2023/06/21 09:35:38;;;;;;;9.65;8.20;;;;;;;-148.88;81.64;-17125.47;5032875;28;20025;-87
2023/06/21 09:38:19;;;;;;;8.75;7.80;;;;;;;-148.88;82.98;-17125.47;5033085;28;20032;-83
2023/06/21 09:40:45;;;;;;;10.60;8.48;;;;;;;-148.88;83.77;-17125.47;5035214;28;20025;-86
2023/06/21 09:43:10;;;;;;;10.52;8.18;;;;;;;-148.88;83.94;-17125.47;5036349;28;20024;-86
2023/06/21 09:45:36;;;;;;;10.95;7.93;;;;;;;-148.88;84.49;-17125.47;5036613;28;20032;-87
2023/06/21 09:48:01;;;;;;;9.38;7.63;;;;;;;-148.88;84.46;-17125.47;5036223;28;20029;-85
2023/06/21 09:50:27;;;;;;;8.90;8.00;;;;;;;-148.88;84.75;-17125.47;5036186;28;20027;-86
2023/06/21 09:52:52;;;;;;;9.52;8.30;;;;;;;-148.88;82.72;-17125.47;5036264;28;20064;-87
2023/06/21 09:55:17;;;;;;;8.93;7.72;;;;;;;-148.88;82.00;-17125.47;5020435;28;20041;-86
2023/06/21 09:57:43;;;;;;;10.38;8.73;;;;;;;-148.88;79.29;-17125.47;5036172;28;20021;-88
2023/06/21 10:00:10;;;;;;;9.73;8.50;;;;;;;-148.88;80.28;-17125.47;5036597;28;20033;-85
2023/06/21 10:02:39;;;;;;;10.82;8.65;;;;;;;-148.88;79.51;-17125.47;5036853;28;20507;-84
2023/06/21 10:05:15;;;;;;;11.50;8.38;;;;;;;-148.88;80.60;-17125.47;5036164;28;20025;-85
2023/06/21 10:07:50;;;;;;;12.15;8.35;;;;;;;-148.88;84.04;-17125.47;5036107;28;20029;-85
2023/06/21 10:10:18;;;;;;;9.95;8.25;;;;;;;-148.88;84.84;-17125.47;5036743;28;20045;-86
2023/06/21 10:12:50;;;;;;;9.50;8.45;;;;;;;-148.88;85.83;-17125.47;5035827;28;20025;-85
2023/06/21 10:15:15;;;;;;;9.10;8.05;;;;;;;-148.88;85.17;-17125.47;5035752;28;20068;-83
2023/06/21 10:17:42;;;;;;;9.23;7.43;;;;;;;-148.88;82.83;-17125.47;5035949;28;20029;-85
2023/06/21 10:20:09;;;;;;;8.25;7.45;;;;;;;-148.88;84.72;-17125.47;5035667;28;20036;-84
2023/06/21 10:22:37;;;;;;;8.98;8.05;;;;;;;-148.88;83.09;-17125.47;5035923;28;20029;-83
2023/06/21 10:25:04;;;;;;;9.68;7.72;;;;;;;-148.88;82.94;-17125.47;5036497;28;20025;-84
2023/06/21 10:27:30;;;;;;;9.77;8.65;;;;;;;-148.88;80.67;-17125.47;5035652;28;20586;-84
2023/06/21 10:29:57;;;;;;;9.23;7.90;;;;;;;-148.88;78.05;-17125.47;5035753;28;20408;-83
2023/06/21 10:32:27;;;;;;;9.07;8.05;;;;;;;-148.88;76.52;-17125.47;5035992;28;20021;-85
2023/06/21 10:35:09;;;;;;;10.35;7.93;;;;;;;-148.88;78.29;-17125.47;5036128;28;20048;-83
2023/06/21 10:38:03;;;;;;;13.63;8.30;;;;;;;-148.88;79.37;-17125.47;5036172;28;20421;-84
2023/06/21 10:40:29;;;;;;;9.13;7.90;;;;;;;-148.88;75.90;-17125.47;5036346;28;20055;-85
2023/06/21 10:42:57;;;;;;;8.52;7.63;;;;;;;-148.88;76.67;-17125.47;5035429;28;20021;-84
2023/06/21 10:45:24;;;;;;;7.70;6.90;;;;;;;-148.88;73.09;-17125.47;5035860;28;20022;-84
2023/06/21 10:47:52;;;;;;;11.02;7.93;;;;;;;-148.88;73.04;-17125.47;5035292;28;20031;-83
2023/06/21 10:50:19;;;;;;;8.40;7.50;;;;;;;-148.88;73.00;-17125.47;5034983;28;20500;-85
2023/06/21 10:52:49;;;;;;;8.55;7.57;;;;;;;-148.88;72.52;-17125.47;5034033;28;20436;-83